Time;durP1;ratioP1;P1;durP2;ratioP2;P2;SDS_P1;SDS_P2;PMS_P1;PMS_P2;Temp;Humidity;BMP_temperature;BMP_pressure;BME280_temperature;BME280_humidity;BME280_pressure;Samples;Min_cycle;Max_cycle;Signal;HPM_P1;HPM_P2
2023/01/14 00:00:47;;;;;;;9.50;5.53;;;21.90;64.80;;;;;;5087630;28;20164;-76
2023/01/14 00:03:13;;;;;;;7.47;5.22;;;21.80;64.80;;;;;;5095583;28;20460;-76
2023/01/14 00:05:41;;;;;;;7.93;5.20;;;21.70;64.90;;;;;;5094513;28;20039;-74
2023/01/14 00:08:07;;;;;;;9.93;6.28;;;21.90;65.20;;;;;;5093531;28;20133;-76
2023/01/14 00:10:33;;;;;;;9.73;5.50;;;21.70;64.70;;;;;;5061017;28;20059;-76
2023/01/14 00:12:59;;;;;;;9.63;5.97;;;21.80;64.70;;;;;;5075225;28;20041;-76
2023/01/14 00:15:25;;;;;;;11.88;6.75;;;21.70;65.00;;;;;;5077193;28;20063;-76
2023/01/14 00:17:51;;;;;;;8.15;5.90;;;21.80;65.10;;;;;;5086797;28;20150;-76
2023/01/14 00:20:17;;;;;;;8.50;5.43;;;21.70;65.40;;;;;;5090779;28;20043;-76
2023/01/14 00:22:43;;;;;;;8.60;5.57;;;21.60;65.20;;;;;;5086061;28;20024;-76
2023/01/14 00:25:09;;;;;;;9.13;6.25;;;21.70;65.10;;;;;;5084463;28;20036;-76
2023/01/14 00:27:35;;;;;;;10.57;6.20;;;21.60;65.20;;;;;;5094808;28;20032;-76
2023/01/14 00:30:01;;;;;;;7.40;5.45;;;21.60;65.40;;;;;;5076437;28;20042;-76
2023/01/14 00:32:27;;;;;;;6.57;4.40;;;21.50;65.40;;;;;;5092859;28;20024;-76
2023/01/14 00:34:53;;;;;;;9.68;6.05;;;21.60;65.70;;;;;;5094937;28;20456;-76
2023/01/14 00:37:19;;;;;;;7.63;5.10;;;21.50;65.70;;;;;;5089777;28;20073;-76
2023/01/14 00:39:49;;;;;;;7.80;4.68;;;21.40;65.80;;;;;;5087032;28;20024;-76
2023/01/14 00:42:15;;;;;;;7.35;5.22;;;21.50;65.90;;;;;;5074445;28;20469;-76
2023/01/14 00:44:40;;;;;;;8.02;4.85;;;21.50;65.90;;;;;;5085983;28;20050;-76
2023/01/14 00:47:07;;;;;;;9.40;5.43;;;21.50;65.90;;;;;;5093748;28;20040;-76
2023/01/14 00:49:32;;;;;;;9.50;5.80;;;21.50;66.00;;;;;;5094418;28;20403;-76
2023/01/14 00:52:00;;;;;;;7.82;5.22;;;21.60;65.90;;;;;;5081992;28;20032;-76
2023/01/14 00:54:27;;;;;;;9.70;5.45;;;21.50;65.90;;;;;;5090444;28;20132;-76
2023/01/14 00:56:53;;;;;;;8.07;4.97;;;21.50;66.00;;;;;;5094257;28;20039;-76
2023/01/14 00:59:21;;;;;;;9.00;5.28;;;21.50;65.90;;;;;;5076122;28;20055;-76
2023/01/14 01:01:49;;;;;;;8.07;4.85;;;21.60;65.90;;;;;;5045140;28;20040;-76
2023/01/14 01:04:15;;;;;;;9.48;5.50;;;21.50;65.80;;;;;;5074220;28;20024;-76
2023/01/14 01:06:41;;;;;;;8.80;5.20;;;21.60;65.90;;;;;;5083917;28;20435;-76
2023/01/14 01:09:07;;;;;;;8.57;5.10;;;21.60;65.80;;;;;;5062657;28;20036;-76
2023/01/14 01:11:33;;;;;;;11.52;6.40;;;21.60;65.80;;;;;;5075595;28;20044;-76
2023/01/14 01:13:59;;;;;;;9.43;5.63;;;21.60;65.60;;;;;;5074172;28;20093;-76
2023/01/14 01:16:25;;;;;;;7.53;5.05;;;21.60;65.70;;;;;;5044770;28;20435;-76
2023/01/14 01:18:54;;;;;;;8.73;5.22;;;21.50;65.80;;;;;;5071323;28;20037;-76
2023/01/14 01:21:21;;;;;;;9.77;5.35;;;21.50;65.80;;;;;;5058808;28;20041;-76
2023/01/14 01:23:49;;;;;;;9.73;5.90;;;21.50;65.80;;;;;;5053474;28;20067;-76
2023/01/14 01:26:17;;;;;;;5.88;4.43;;;21.40;65.90;;;;;;5068375;28;20044;-76
2023/01/14 01:28:47;;;;;;;9.98;5.18;;;21.40;66.00;;;;;;5068868;28;20040;-76
2023/01/14 01:31:14;;;;;;;9.40;5.25;;;21.40;65.90;;;;;;5044563;28;20041;-76
2023/01/14 01:33:41;;;;;;;7.63;4.88;;;21.30;65.90;;;;;;5034239;28;20071;-76
2023/01/14 01:36:16;;;;;;;8.88;4.85;;;21.30;66.00;;;;;;5057011;28;20512;-76
2023/01/14 01:38:44;;;;;;;8.57;5.53;;;21.30;66.00;;;;;;5053242;28;20028;-76
2023/01/14 01:41:15;;;;;;;6.63;5.00;;;21.20;66.10;;;;;;5068094;28;20136;-76
2023/01/14 01:43:58;;;;;;;8.13;5.13;;;21.30;66.50;;;;;;5053913;28;20036;-76
2023/01/14 01:46:25;;;;;;;8.70;5.05;;;21.30;66.30;;;;;;5058917;28;20508;-76
2023/01/14 01:48:52;;;;;;;9.43;5.47;;;21.30;66.10;;;;;;5073014;28;20780;-76
2023/01/14 01:51:22;;;;;;;9.88;5.88;;;21.30;66.10;;;;;;5086764;28;20117;-76
2023/01/14 01:53:52;;;;;;;9.73;5.68;;;21.30;66.20;;;;;;5057457;28;20070;-76
2023/01/14 01:56:23;;;;;;;8.63;5.30;;;21.30;66.10;;;;;;5059873;28;20442;-76
2023/01/14 01:58:51;;;;;;;8.48;5.22;;;21.40;66.20;;;;;;5059618;28;20027;-76
2023/01/14 02:01:17;;;;;;;6.68;4.72;;;21.40;65.90;;;;;;5082694;28;20047;-76
2023/01/14 02:03:45;;;;;;;8.38;5.40;;;21.30;66.00;;;;;;5074363;28;20046;-76
2023/01/14 02:06:12;;;;;;;8.02;5.35;;;21.40;66.00;;;;;;5072078;28;20502;-76
2023/01/14 02:08:48;;;;;;;7.22;4.57;;;21.50;66.10;;;;;;5073004;28;20028;-76
2023/01/14 02:11:30;;;;;;;7.18;5.35;;;21.40;66.10;;;;;;5077682;28;20044;-76
2023/01/14 02:14:03;;;;;;;9.60;4.80;;;21.50;65.90;;;;;;5054651;28;20064;-76
2023/01/14 02:16:35;;;;;;;6.93;4.57;;;21.70;65.60;;;;;;5064996;28;20471;-76
2023/01/14 02:19:13;;;;;;;8.07;4.43;;;21.50;65.40;;;;;;5074802;28;20560;-76
2023/01/14 02:22:00;;;;;;;6.88;4.70;;;21.50;65.50;;;;;;5066393;28;20040;-76
2023/01/14 02:24:44;;;;;;;7.05;4.65;;;21.50;65.90;;;;;;5072882;28;20128;-76
2023/01/14 02:27:23;;;;;;;6.97;5.60;;;21.40;65.90;;;;;;5089880;28;20032;-77
2023/01/14 02:30:06;;;;;;;10.10;5.95;;;21.30;66.00;;;;;;5072540;28;20380;-76
2023/01/14 02:33:03;;;;;;;7.35;5.43;;;21.40;66.00;;;;;;5073911;28;20115;-76
2023/01/14 02:35:46;;;;;;;7.43;4.85;;;21.30;66.00;;;;;;5069480;28;20031;-77
2023/01/14 02:38:26;;;;;;;7.47;4.70;;;21.30;66.40;;;;;;5049962;28;20049;-76
2023/01/14 02:41:12;;;;;;;6.38;4.13;;;21.40;66.20;;;;;;5035606;28;20033;-76
2023/01/14 02:46:37;;;;;;;6.47;4.40;;;21.20;66.20;;;;;;5044301;28;20045;-76
2023/01/14 02:49:12;;;;;;;6.72;4.43;;;21.30;66.10;;;;;;5068090;28;20033;-76
2023/01/14 02:51:43;;;;;;;8.30;4.85;;;21.20;66.20;;;;;;5043813;28;20070;-76
2023/01/14 02:54:11;;;;;;;8.73;5.07;;;21.20;66.20;;;;;;5052772;28;20037;-77
2023/01/14 02:56:39;;;;;;;5.35;4.10;;;21.20;66.30;;;;;;5036586;28;20167;-75
2023/01/14 02:59:28;;;;;;;7.68;4.55;;;21.20;66.10;;;;;;5009443;28;20042;-76
2023/01/14 03:02:16;;;;;;;5.82;4.47;;;21.20;66.10;;;;;;5003873;28;20034;-76
2023/01/14 03:05:05;;;;;;;6.40;4.47;;;21.20;66.20;;;;;;5009836;28;20133;-76
2023/01/14 03:07:45;;;;;;;6.45;4.18;;;21.20;66.00;;;;;;4991028;28;20046;-76
2023/01/14 03:10:16;;;;;;;7.85;4.72;;;21.30;65.60;;;;;;5009002;28;20061;-76
2023/01/14 03:12:47;;;;;;;6.40;4.40;;;21.20;65.10;;;;;;5014446;28;20084;-76
2023/01/14 03:15:28;;;;;;;7.18;4.22;;;21.20;65.10;;;;;;4994913;28;20036;-76
2023/01/14 03:18:04;;;;;;;8.27;4.82;;;21.40;65.00;;;;;;5012457;28;20045;-76
2023/01/14 03:20:38;;;;;;;5.43;4.47;;;21.30;64.30;;;;;;5008926;28;20209;-76
2023/01/14 03:23:13;;;;;;;6.05;4.20;;;21.20;64.20;;;;;;5009192;28;20049;-76
2023/01/14 03:25:44;;;;;;;6.97;4.20;;;21.30;64.20;;;;;;5025606;28;20160;-76
2023/01/14 03:28:23;;;;;;;7.82;4.53;;;21.20;64.10;;;;;;5008748;28;20038;-75
2023/01/14 03:30:55;;;;;;;6.75;4.25;;;21.30;63.70;;;;;;4986123;28;20048;-76
2023/01/14 03:33:31;;;;;;;7.03;4.22;;;21.30;63.50;;;;;;4990423;28;20045;-76
2023/01/14 03:35:58;;;;;;;6.50;4.50;;;21.10;63.30;;;;;;5026515;28;20111;-76
2023/01/14 03:38:29;;;;;;;7.63;4.55;;;21.20;63.00;;;;;;5071498;28;20411;-76
2023/01/14 03:40:57;;;;;;;5.82;4.18;;;21.20;62.90;;;;;;5089453;28;20392;-76
2023/01/14 03:43:41;;;;;;;5.25;3.78;;;21.30;62.90;;;;;;5071973;28;20035;-76
2023/01/14 03:46:08;;;;;;;6.15;3.63;;;21.20;62.90;;;;;;5043556;28;20124;-76
2023/01/14 03:48:34;;;;;;;6.47;3.70;;;21.20;62.70;;;;;;5091335;28;20403;-75
2023/01/14 03:51:09;;;;;;;8.38;4.07;;;21.20;62.50;;;;;;5080415;28;20036;-76
2023/01/14 03:53:57;;;;;;;6.43;4.03;;;21.10;62.30;;;;;;5070520;28;20036;-76
2023/01/14 03:56:40;;;;;;;5.40;4.05;;;21.10;62.10;;;;;;5088032;28;20024;-76
2023/01/14 03:59:26;;;;;;;7.43;4.23;;;21.00;62.00;;;;;;5073234;28;20036;-76
2023/01/14 04:01:54;;;;;;;6.38;3.85;;;21.10;62.10;;;;;;5057605;28;20036;-76
2023/01/14 04:04:23;;;;;;;7.93;4.72;;;21.10;62.00;;;;;;5076753;28;20020;-76
2023/01/14 04:06:50;;;;;;;5.63;4.35;;;21.10;61.90;;;;;;5061683;28;20377;-76
2023/01/14 04:09:16;;;;;;;7.07;4.63;;;21.10;61.70;;;;;;5086279;28;20071;-75
2023/01/14 04:11:42;;;;;;;6.45;4.00;;;21.10;61.80;;;;;;5089549;28;20060;-76
2023/01/14 04:16:54;;;;;;;5.78;4.88;;;21.00;61.70;;;;;;5085113;28;20040;-76
2023/01/14 04:19:20;;;;;;;6.38;4.20;;;21.10;61.40;;;;;;5091126;28;20032;-76
2023/01/14 04:21:46;;;;;;;5.68;3.38;;;21.20;61.40;;;;;;5082040;28;20082;-75
2023/01/14 04:24:12;;;;;;;6.00;4.10;;;21.20;61.30;;;;;;5054570;28;20067;-76
2023/01/14 04:26:38;;;;;;;8.50;4.20;;;21.10;61.00;;;;;;5086255;28;20055;-76
2023/01/14 04:29:04;;;;;;;7.43;4.10;;;21.10;61.00;;;;;;5070986;28;20052;-76
2023/01/14 04:31:30;;;;;;;9.05;4.68;;;21.10;60.90;;;;;;5082137;28;20368;-76
2023/01/14 04:33:56;;;;;;;6.75;4.15;;;21.00;60.50;;;;;;5057272;28;20036;-75
2023/01/14 04:36:22;;;;;;;5.32;3.70;;;21.30;60.80;;;;;;5073933;28;20099;-76
2023/01/14 04:38:48;;;;;;;7.97;3.97;;;21.10;60.50;;;;;;5053173;28;20031;-76
2023/01/14 04:43:59;;;;;;;6.22;3.42;;;21.10;60.50;;;;;;5074493;28;20453;-76
2023/01/14 04:46:25;;;;;;;5.85;3.75;;;21.00;60.10;;;;;;5084883;28;20044;-76
2023/01/14 04:48:51;;;;;;;6.95;4.65;;;21.10;60.30;;;;;;5094614;28;20082;-75
2023/01/14 04:51:17;;;;;;;6.00;4.63;;;21.00;60.00;;;;;;5090891;28;20935;-75
2023/01/14 04:53:43;;;;;;;7.05;4.03;;;21.00;60.10;;;;;;5093376;28;20036;-75
2023/01/14 04:56:09;;;;;;;7.93;4.55;;;20.90;60.30;;;;;;5093124;28;20043;-76
2023/01/14 04:58:35;;;;;;;6.45;4.40;;;21.00;60.10;;;;;;5076229;28;20393;-76
2023/01/14 05:01:01;;;;;;;5.80;4.25;;;21.00;60.40;;;;;;5081605;28;20028;-75
2023/01/14 05:03:27;;;;;;;6.97;4.47;;;21.00;60.20;;;;;;5094543;28;20032;-75
2023/01/14 05:05:53;;;;;;;7.50;5.35;;;21.00;60.00;;;;;;5092281;28;20036;-76
2023/01/14 05:08:20;;;;;;;8.95;4.93;;;21.00;60.00;;;;;;5094390;28;20035;-75
2023/01/14 05:10:49;;;;;;;7.10;4.53;;;21.00;59.80;;;;;;5093394;28;20090;-75
2023/01/14 05:13:15;;;;;;;5.40;4.43;;;21.10;59.60;;;;;;5091660;28;20647;-76
2023/01/14 05:15:43;;;;;;;9.93;5.25;;;21.00;59.50;;;;;;5075083;28;20034;-75
2023/01/14 05:18:12;;;;;;;6.97;5.30;;;21.10;59.70;;;;;;5093962;28;20032;-75
2023/01/14 05:20:38;;;;;;;6.78;4.47;;;21.10;59.50;;;;;;5076482;28;20032;-75
2023/01/14 05:23:08;;;;;;;7.93;4.63;;;21.00;59.60;;;;;;5073945;28;20043;-75
2023/01/14 05:25:35;;;;;;;7.75;4.85;;;21.00;59.60;;;;;;5087800;28;20031;-75
2023/01/14 05:28:04;;;;;;;9.27;5.20;;;21.00;59.60;;;;;;5078869;28;20033;-75
2023/01/14 05:30:30;;;;;;;7.60;4.60;;;20.90;59.70;;;;;;5070207;28;20036;-75
2023/01/14 05:32:56;;;;;;;7.68;4.57;;;20.90;59.70;;;;;;5093712;28;20119;-75
2023/01/14 05:35:23;;;;;;;7.97;5.20;;;21.00;59.30;;;;;;5091473;28;20043;-76
2023/01/14 05:37:49;;;;;;;7.78;4.45;;;21.00;59.10;;;;;;5093770;28;20035;-76
2023/01/14 05:40:16;;;;;;;9.27;5.38;;;21.00;59.10;;;;;;5092792;28;20032;-75
2023/01/14 05:45:41;;;;;;;7.55;5.30;;;20.90;59.00;;;;;;5057733;28;20063;-75
2023/01/14 05:48:10;;;;;;;8.70;5.22;;;20.80;58.80;;;;;;5093560;28;20040;-75
2023/01/14 05:50:37;;;;;;;7.70;4.95;;;20.90;58.80;;;;;;5089945;28;20038;-75
2023/01/14 05:53:04;;;;;;;8.80;5.20;;;20.90;58.80;;;;;;5090647;28;20038;-76
2023/01/14 05:55:30;;;;;;;7.78;4.93;;;20.80;58.80;;;;;;5091252;28;20039;-75
2023/01/14 05:57:57;;;;;;;6.13;4.95;;;20.70;58.70;;;;;;5092347;28;20569;-75
2023/01/14 06:08:35;;;;;;;7.72;5.35;;;20.70;58.50;;;;;;5074135;28;20544;-75
2023/01/14 06:11:01;;;;;;;7.38;4.75;;;20.80;58.50;;;;;;5074957;28;20049;-75
2023/01/14 06:13:27;;;;;;;7.55;4.57;;;20.80;58.30;;;;;;5067847;28;20035;-75
2023/01/14 06:15:55;;;;;;;7.40;5.22;;;20.80;58.10;;;;;;5092388;28;20030;-75
2023/01/14 06:18:22;;;;;;;9.15;5.90;;;20.80;58.30;;;;;;5093098;28;20119;-75
2023/01/14 06:20:50;;;;;;;10.00;6.18;;;20.70;58.40;;;;;;5089998;28;20023;-75
2023/01/14 06:23:18;;;;;;;9.02;5.95;;;20.80;58.20;;;;;;5072331;28;20408;-75
2023/01/14 06:25:46;;;;;;;7.93;5.72;;;20.90;58.20;;;;;;5064961;28;20036;-75
2023/01/14 06:28:12;;;;;;;8.20;5.43;;;20.80;58.10;;;;;;5081282;28;20036;-75
2023/01/14 06:30:38;;;;;;;9.82;6.03;;;20.90;58.10;;;;;;5059979;28;20123;-75
2023/01/14 06:33:06;;;;;;;8.32;5.65;;;20.80;57.90;;;;;;5072387;28;20039;-75
2023/01/14 06:35:33;;;;;;;10.48;6.43;;;20.90;58.10;;;;;;5072305;28;20028;-75
2023/01/14 06:37:59;;;;;;;11.73;6.22;;;20.90;58.00;;;;;;5072053;28;20400;-75
2023/01/14 06:40:25;;;;;;;9.07;5.65;;;20.90;57.90;;;;;;5092715;28;20016;-75
2023/01/14 06:42:54;;;;;;;11.93;6.22;;;20.90;58.00;;;;;;5074261;28;20024;-74
2023/01/14 06:45:22;;;;;;;9.48;5.72;;;20.90;58.00;;;;;;5092645;28;20028;-75
2023/01/14 06:47:48;;;;;;;10.68;6.20;;;20.80;57.90;;;;;;5092373;28;20362;-75
2023/01/14 06:50:17;;;;;;;9.95;5.47;;;20.80;57.90;;;;;;5092158;28;20107;-74
2023/01/14 06:52:43;;;;;;;7.97;5.45;;;20.70;57.90;;;;;;5072859;28;20517;-75
2023/01/14 06:55:09;;;;;;;8.27;5.32;;;20.60;57.80;;;;;;5071878;28;20024;-75
2023/01/14 06:57:35;;;;;;;11.98;6.38;;;20.70;58.00;;;;;;5054262;28;20028;-75
2023/01/14 07:00:01;;;;;;;12.75;7.53;;;20.70;58.00;;;;;;5053924;28;20033;-76
2023/01/14 07:02:27;;;;;;;9.30;5.90;;;20.70;57.70;;;;;;5079561;28;20036;-75
2023/01/14 07:04:53;;;;;;;10.93;6.82;;;20.60;58.40;;;;;;5081529;28;20388;-74
2023/01/14 07:07:18;;;;;;;9.77;6.18;;;20.70;59.70;;;;;;5063439;28;20035;-74
2023/01/14 07:09:45;;;;;;;10.75;6.50;;;20.70;61.50;;;;;;5082503;28;20458;-71
2023/01/14 07:12:11;;;;;;;7.53;5.63;;;20.70;62.20;;;;;;5061830;28;20047;-71
2023/01/14 07:14:37;;;;;;;8.32;6.20;;;21.00;60.80;;;;;;5081908;28;20024;-72
2023/01/14 07:17:03;;;;;;;7.53;5.28;;;21.30;59.30;;;;;;5080026;28;20143;-74
2023/01/14 07:19:29;;;;;;;6.35;4.97;;;21.50;58.90;;;;;;5084951;28;20472;-73
2023/01/14 07:21:55;;;;;;;8.35;4.82;;;21.70;49.80;;;;;;5090161;28;20092;-72
2023/01/14 07:24:21;;;;;;;7.93;5.00;;;21.70;50.90;;;;;;5085563;28;20032;-73
2023/01/14 07:26:47;;;;;;;5.97;4.97;;;21.70;50.60;;;;;;5071431;28;20036;-71
2023/01/14 07:29:14;;;;;;;7.38;6.00;;;21.60;50.30;;;;;;5053702;28;20032;-75
2023/01/14 07:31:41;;;;;;;10.63;7.25;;;21.70;51.00;;;;;;5071531;28;20059;-73
2023/01/14 07:34:07;;;;;;;3.55;2.00;;;21.70;48.80;;;;;;5071422;28;20028;-73
2023/01/14 07:36:33;;;;;;;6.38;4.10;;;21.90;62.10;;;;;;5079812;28;20016;-77
2023/01/14 07:38:59;;;;;;;4.60;3.50;;;22.00;63.50;;;;;;5089857;28;20330;-79
2023/01/14 07:41:25;;;;;;;6.60;4.65;;;22.10;60.60;;;;;;5037971;28;20101;-74
2023/01/14 07:43:52;;;;;;;5.60;3.88;;;22.20;59.50;;;;;;5091601;28;20105;-73
2023/01/14 07:46:18;;;;;;;6.22;3.97;;;22.30;60.80;;;;;;5056902;28;20039;-76
2023/01/14 07:48:44;;;;;;;6.28;4.50;;;22.30;60.00;;;;;;5071363;28;20166;-77
2023/01/14 07:51:12;;;;;;;7.68;4.55;;;22.40;59.10;;;;;;5074659;28;20038;-77
2023/01/14 07:53:38;;;;;;;6.57;4.30;;;22.40;58.30;;;;;;5071362;28;20468;-80
2023/01/14 07:56:06;;;;;;;5.80;3.85;;;22.40;57.00;;;;;;5071240;28;20135;-78
2023/01/14 07:58:33;;;;;;;5.28;3.60;;;22.50;55.90;;;;;;5071300;28;20480;-76
2023/01/14 08:01:05;;;;;;;6.18;4.30;;;22.50;54.90;;;;;;5071311;28;20174;-76
2023/01/14 08:03:32;;;;;;;6.43;3.90;;;22.50;54.00;;;;;;5071146;28;20025;-78
2023/01/14 08:06:05;;;;;;;5.28;3.78;;;22.70;53.60;;;;;;5074034;28;20028;-74
2023/01/14 08:08:32;;;;;;;6.80;4.32;;;22.50;53.60;;;;;;5053476;28;20032;-76
2023/01/14 08:11:02;;;;;;;6.93;4.70;;;22.60;53.90;;;;;;5082596;28;20052;-82
2023/01/14 08:13:30;;;;;;;7.78;4.63;;;22.70;54.00;;;;;;5089362;28;20036;-75
2023/01/14 08:15:58;;;;;;;6.88;4.55;;;22.70;54.10;;;;;;5093256;28;20425;-74
2023/01/14 08:18:24;;;;;;;6.80;4.93;;;22.60;54.70;;;;;;5095306;28;20024;-80
2023/01/14 08:20:58;;;;;;;6.45;4.93;;;22.60;55.60;;;;;;5080248;28;20111;-78
2023/01/14 08:23:24;;;;;;;7.07;5.82;;;22.50;51.30;;;;;;5077629;28;20032;-78
2023/01/14 08:25:50;;;;;;;7.22;5.97;;;22.50;45.30;;;;;;5046478;28;20046;-77
2023/01/14 08:28:16;;;;;;;7.15;4.15;;;22.80;45.80;;;;;;5036101;28;20033;-78
2023/01/14 08:30:42;;;;;;;7.03;4.65;;;22.90;43.00;;;;;;5050242;28;20517;-78
2023/01/14 08:33:08;;;;;;;5.28;4.13;;;22.90;43.90;;;;;;5024089;28;20047;-77
2023/01/14 08:35:39;;;;;;;6.55;4.20;;;22.90;43.80;;;;;;5031961;28;20029;-79
2023/01/14 08:38:06;;;;;;;5.90;4.25;;;23.00;42.60;;;;;;5035471;28;20073;-77
2023/01/14 08:40:33;;;;;;;8.80;5.70;;;23.10;39.90;;;;;;5032462;28;20041;-77
2023/01/14 08:42:59;;;;;;;8.10;5.88;;;23.00;42.50;;;;;;5047409;28;20033;-78
2023/01/14 08:45:25;;;;;;;9.00;5.93;;;23.00;51.20;;;;;;5051984;28;20465;-75
2023/01/14 08:47:51;;;;;;;7.90;5.50;;;22.90;53.60;;;;;;5048277;28;20041;-75
2023/01/14 08:50:18;;;;;;;11.02;6.57;;;22.80;54.60;;;;;;5052037;28;20477;-74
2023/01/14 08:52:44;;;;;;;9.07;6.35;;;22.70;55.60;;;;;;5051971;28;20041;-72
2023/01/14 08:55:09;;;;;;;8.65;5.75;;;22.60;56.50;;;;;;5018715;28;20040;-75
2023/01/14 08:57:35;;;;;;;10.40;6.45;;;22.60;57.40;;;;;;5051748;28;20049;-74
2023/01/14 09:00:01;;;;;;;9.30;6.57;;;22.50;58.10;;;;;;5050604;28;20040;-74
2023/01/14 09:02:28;;;;;;;9.88;6.63;;;22.40;58.50;;;;;;5040311;28;20036;-74
2023/01/14 09:04:54;;;;;;;9.25;5.97;;;22.40;59.30;;;;;;5093768;28;20388;-74
2023/01/14 09:18:19;;;;;;;11.00;7.05;;;22.30;60.30;;;;;;5086964;28;20036;-74
2023/01/14 09:20:45;;;;;;;14.88;9.02;;;22.30;60.10;;;;;;5094194;28;20028;-74
2023/01/14 09:23:11;;;;;;;13.75;6.78;;;22.30;60.20;;;;;;5075807;28;20479;-74
2023/01/14 09:25:37;;;;;;;12.38;7.53;;;22.20;60.10;;;;;;5081180;28;20032;-74
2023/01/14 09:28:04;;;;;;;17.60;9.52;;;22.20;60.20;;;;;;5073944;28;20075;-74
2023/01/14 09:30:30;;;;;;;12.82;7.60;;;22.10;60.30;;;;;;5073853;28;20071;-74
2023/01/14 09:32:56;;;;;;;13.80;8.75;;;22.10;60.40;;;;;;5085768;28;20048;-74
2023/01/14 09:35:22;;;;;;;9.98;7.10;;;22.00;60.30;;;;;;5093579;28;20071;-73
2023/01/14 09:37:48;;;;;;;9.50;6.22;;;21.90;60.50;;;;;;5093554;28;20036;-74
2023/01/14 09:40:14;;;;;;;9.10;6.80;;;21.90;60.70;;;;;;5093786;28;20080;-73
2023/01/14 09:42:47;;;;;;;11.20;6.45;;;21.90;60.90;;;;;;5075532;28;20439;-73
2023/01/14 09:45:28;;;;;;;10.10;6.80;;;21.90;60.70;;;;;;5093538;28;20036;-74
2023/01/14 09:47:56;;;;;;;11.60;6.45;;;21.80;60.70;;;;;;5092716;28;20040;-74
2023/01/14 09:50:44;;;;;;;11.00;6.45;;;21.70;60.90;;;;;;5075284;28;20476;-73
2023/01/14 09:53:32;;;;;;;12.15;7.07;;;21.70;61.20;;;;;;5093402;28;20046;-74
2023/01/14 09:56:04;;;;;;;10.77;7.13;;;21.70;61.30;;;;;;5093290;28;20030;-74
2023/01/14 09:58:39;;;;;;;11.43;7.75;;;21.70;61.50;;;;;;5091672;28;20399;-73
2023/01/14 10:01:11;;;;;;;10.68;7.47;;;21.70;61.30;;;;;;5093223;28;20503;-73
2023/01/14 10:03:43;;;;;;;13.85;7.47;;;21.70;61.50;;;;;;5092262;28;20039;-74
2023/01/14 10:06:14;;;;;;;9.52;6.13;;;21.60;61.40;;;;;;5058634;28;20040;-74
2023/01/14 10:08:47;;;;;;;14.13;7.07;;;21.70;61.30;;;;;;5093313;28;20032;-74
2023/01/14 10:11:14;;;;;;;11.48;6.47;;;21.70;61.20;;;;;;5093459;28;20047;-74
2023/01/14 10:14:02;;;;;;;14.77;6.85;;;21.60;61.20;;;;;;5093216;28;20028;-74
2023/01/14 10:16:45;;;;;;;11.45;5.50;;;21.60;61.20;;;;;;5048721;28;20132;-74
2023/01/14 10:19:20;;;;;;;9.43;5.63;;;21.60;61.70;;;;;;5030633;28;20041;-74
2023/01/14 10:22:21;;;;;;;8.98;5.55;;;21.70;61.60;;;;;;5030571;28;20145;-74
2023/01/14 10:24:47;;;;;;;8.48;5.78;;;21.70;61.10;;;;;;5030409;28;20041;-76
2023/01/14 10:27:18;;;;;;;7.45;5.00;;;21.70;60.80;;;;;;5030088;28;20065;-78
2023/01/14 10:29:48;;;;;;;10.32;6.30;;;21.80;62.00;;;;;;5030241;28;20111;-74
2023/01/14 10:32:16;;;;;;;10.90;6.30;;;22.50;61.40;;;;;;5038064;28;20056;-75
2023/01/14 10:34:49;;;;;;;10.07;6.55;;;23.00;50.70;;;;;;5050023;28;20416;-74
2023/01/14 10:37:15;;;;;;;12.35;9.20;;;23.20;52.50;;;;;;5049650;28;20049;-75
2023/01/14 10:39:52;;;;;;;9.57;7.85;;;23.10;46.20;;;;;;5049396;28;20060;-77
2023/01/14 10:42:24;;;;;;;15.02;10.15;;;22.90;43.40;;;;;;5048287;28;20084;-77
2023/01/14 10:44:51;;;;;;;8.25;6.68;;;22.80;45.20;;;;;;5049633;28;20611;-74
2023/01/14 10:47:18;;;;;;;18.63;14.90;;;22.80;46.50;;;;;;5047109;28;20509;-74
2023/01/14 10:49:49;;;;;;;13.25;11.77;;;22.80;47.10;;;;;;5032770;28;20655;-77
2023/01/14 10:52:34;;;;;;;13.48;11.13;;;22.80;49.70;;;;;;5032928;28;20068;-74
2023/01/14 10:55:19;;;;;;;13.85;11.48;;;22.90;48.30;;;;;;5052990;28;20485;-75
2023/01/14 10:57:57;;;;;;;14.20;11.60;;;22.90;45.60;;;;;;5077280;28;20063;-75
2023/01/14 11:00:36;;;;;;;28.33;17.55;;;23.00;46.50;;;;;;5092211;28;20036;-74
2023/01/14 11:03:09;;;;;;;9.98;7.47;;;23.10;46.60;;;;;;5091535;28;20016;-74
2023/01/14 11:05:37;;;;;;;14.43;7.68;;;23.20;45.20;;;;;;5073953;28;20089;-76
2023/01/14 11:08:21;;;;;;;11.50;7.97;;;23.20;44.10;;;;;;5091620;28;20043;-75
2023/01/14 11:10:59;;;;;;;13.40;8.13;;;23.10;44.80;;;;;;5090384;28;20438;-74
2023/01/14 11:13:27;;;;;;;10.63;6.38;;;23.00;45.40;;;;;;5091557;28;20025;-75
2023/01/14 11:15:53;;;;;;;11.82;7.40;;;23.00;43.50;;;;;;5091564;28;20115;-72
2023/01/14 11:18:19;;;;;;;10.18;6.93;;;23.10;42.50;;;;;;5088610;28;20508;-69
2023/01/14 11:21:01;;;;;;;11.15;7.20;;;22.90;44.40;;;;;;5066490;28;20062;-71
2023/01/14 11:23:33;;;;;;;9.77;7.13;;;23.00;44.70;;;;;;5091334;28;20036;-73
2023/01/14 11:26:23;;;;;;;10.57;7.30;;;23.00;43.70;;;;;;5063585;28;20492;-72
2023/01/14 11:28:51;;;;;;;10.10;6.80;;;22.90;44.60;;;;;;4992468;28;20042;-77
2023/01/14 11:31:27;;;;;;;9.10;6.72;;;23.00;45.30;;;;;;5008865;28;20061;-71
2023/01/14 11:33:54;;;;;;;10.40;6.57;;;23.10;49.60;;;;;;5019771;28;20121;-73
2023/01/14 11:36:25;;;;;;;10.27;7.13;;;23.20;47.50;;;;;;5024318;28;20071;-71
2023/01/14 11:38:52;;;;;;;8.20;5.88;;;23.30;52.60;;;;;;5009765;28;20088;-71
2023/01/14 11:41:47;;;;;;;7.60;5.10;;;23.50;49.80;;;;;;4993382;28;20042;-71
2023/01/14 11:44:13;;;;;;;10.30;5.95;;;23.50;56.30;;;;;;4986438;28;20052;-71
2023/01/14 11:46:42;;;;;;;9.65;6.80;;;23.60;56.50;;;;;;4989449;28;20046;-72
2023/01/14 11:49:19;;;;;;;10.30;6.13;;;23.60;56.30;;;;;;4987284;28;20117;-71
2023/01/14 11:52:02;;;;;;;9.25;5.97;;;23.60;56.50;;;;;;4969747;28;20055;-71
2023/01/14 11:54:37;;;;;;;9.40;5.95;;;23.30;56.90;;;;;;4975304;28;20030;-72
2023/01/14 11:57:15;;;;;;;11.15;6.40;;;23.20;57.30;;;;;;4978812;28;20042;-73
2023/01/14 11:59:42;;;;;;;9.93;6.38;;;23.10;58.10;;;;;;4977132;28;20046;-72
2023/01/14 12:02:14;;;;;;;8.98;6.03;;;23.10;58.10;;;;;;4972454;28;20535;-73
2023/01/14 12:04:51;;;;;;;10.75;7.18;;;22.90;58.50;;;;;;4989402;28;20051;-72
2023/01/14 12:07:25;;;;;;;12.20;7.97;;;23.00;59.00;;;;;;5015042;28;20045;-71
2023/01/14 12:09:55;;;;;;;9.23;6.88;;;22.80;58.90;;;;;;5027695;28;20131;-71
2023/01/14 12:18:39;;;;;;;7.45;5.88;;;23.10;50.50;;;;;;5039862;28;20033;-70
2023/01/14 12:21:06;;;;;;;9.52;6.40;;;23.00;48.20;;;;;;5057696;28;20051;-71
2023/01/14 12:23:41;;;;;;;8.48;6.43;;;23.00;45.90;;;;;;5073062;28;20039;-73
2023/01/14 12:26:20;;;;;;;50.53;24.70;;;22.90;44.30;;;;;;5070179;28;20044;-73
2023/01/14 12:28:50;;;;;;;12.50;8.25;;;22.90;44.00;;;;;;5070257;28;20118;-72
2023/01/14 12:31:33;;;;;;;9.07;6.57;;;22.90;44.40;;;;;;5052617;28;20033;-72
2023/01/14 12:34:11;;;;;;;9.45;7.05;;;22.80;43.70;;;;;;5067244;28;20024;-73
2023/01/14 12:36:48;;;;;;;8.98;6.68;;;22.80;43.60;;;;;;5090631;28;20025;-72
2023/01/14 12:48:03;;;;;;;11.70;8.00;;;22.60;43.40;;;;;;5003474;28;20125;-72
2023/01/14 12:50:30;;;;;;;9.57;6.30;;;22.70;42.40;;;;;;4988822;28;20035;-71
2023/01/14 12:52:58;;;;;;;16.20;8.32;;;22.50;44.80;;;;;;5008652;28;20049;-71
2023/01/14 12:55:29;;;;;;;13.98;8.95;;;22.50;54.60;;;;;;5008684;28;20068;-73
2023/01/14 12:57:58;;;;;;;14.07;8.20;;;22.60;55.60;;;;;;5008548;28;20048;-72
2023/01/14 13:00:28;;;;;;;11.45;7.78;;;22.30;56.40;;;;;;5008412;28;20128;-72
2023/01/14 13:02:56;;;;;;;11.57;7.13;;;22.40;56.80;;;;;;4991910;28;20105;-72
2023/01/14 13:05:27;;;;;;;15.00;7.78;;;22.30;57.20;;;;;;5011454;28;20461;-69
2023/01/14 13:07:56;;;;;;;12.77;7.57;;;22.20;57.90;;;;;;5011790;28;20132;-68
2023/01/14 13:10:40;;;;;;;13.15;8.07;;;22.10;58.50;;;;;;5011814;28;20057;-72
2023/01/14 13:13:19;;;;;;;11.93;7.75;;;22.00;57.80;;;;;;4995174;28;20061;-74
2023/01/14 13:15:45;;;;;;;12.60;7.78;;;21.90;58.60;;;;;;5008631;28;20104;-74
2023/01/14 13:18:33;;;;;;;13.05;7.85;;;22.00;58.60;;;;;;5016899;28;20052;-74
2023/01/14 13:21:04;;;;;;;14.63;9.13;;;21.80;58.70;;;;;;5093757;28;20039;-74
2023/01/14 13:23:51;;;;;;;14.07;9.15;;;21.70;59.30;;;;;;5076034;28;20078;-74
2023/01/14 13:26:28;;;;;;;13.13;7.97;;;21.70;59.40;;;;;;5006956;28;20121;-74
2023/01/14 13:29:05;;;;;;;14.43;8.55;;;21.80;59.50;;;;;;4994934;28;20033;-74
2023/01/14 13:31:36;;;;;;;10.90;7.45;;;21.80;59.70;;;;;;5008868;28;20066;-74
2023/01/14 13:34:21;;;;;;;11.15;7.05;;;21.80;59.70;;;;;;4987075;28;20128;-73
2023/01/14 13:37:08;;;;;;;10.30;6.75;;;21.80;59.70;;;;;;5011362;28;20100;-74
2023/01/14 13:39:34;;;;;;;11.43;7.63;;;21.80;59.80;;;;;;4952931;29;20047;-74
2023/01/14 13:42:13;;;;;;;14.10;7.05;;;21.80;59.70;;;;;;4953266;29;20046;-74
2023/01/14 13:44:48;;;;;;;11.13;6.63;;;21.80;59.80;;;;;;4946787;29;20059;-74